createdAt,value
2019-05-11T00:00:57.129Z,20.43
2019-05-11T00:01:56.962Z,20.52
2019-05-11T00:02:56.947Z,20.63
2019-05-11T00:03:56.934Z,20.64
2019-05-11T00:04:56.927Z,20.73
2019-05-11T00:05:56.913Z,20.73
2019-05-11T00:06:56.955Z,20.71
2019-05-11T00:07:56.891Z,20.60
2019-05-11T00:08:56.882Z,20.65
2019-05-11T00:09:58.510Z,20.67
2019-05-11T00:10:56.857Z,20.58
2019-05-11T00:11:56.852Z,20.70
2019-05-11T00:12:56.887Z,20.64
2019-05-11T00:13:56.824Z,20.65
2019-05-11T00:14:56.815Z,20.79
2019-05-11T00:15:56.803Z,20.92
2019-05-11T00:16:56.791Z,21.13
2019-05-11T00:17:56.787Z,21.27
2019-05-11T00:18:56.923Z,21.45
2019-05-11T00:19:56.764Z,21.54
2019-05-11T00:20:56.763Z,21.63
2019-05-11T00:21:56.737Z,21.74
2019-05-11T00:22:56.732Z,21.89
2019-05-11T00:23:56.718Z,21.97
2019-05-11T00:24:56.758Z,22.06
2019-05-11T00:25:56.694Z,22.05
2019-05-11T00:26:56.683Z,21.94
2019-05-11T00:27:56.674Z,21.79
2019-05-11T00:28:56.662Z,21.63
2019-05-11T00:29:56.650Z,21.42
2019-05-11T00:30:56.691Z,21.36
2019-05-11T00:31:56.630Z,21.38
2019-05-11T00:32:56.622Z,21.27
2019-05-11T00:33:56.605Z,21.10
2019-05-11T00:34:56.599Z,21.05
2019-05-11T00:35:56.591Z,20.86
2019-05-11T00:36:56.727Z,20.78
2019-05-11T00:37:56.564Z,20.89
2019-05-11T00:38:56.553Z,20.85
2019-05-11T00:39:56.545Z,20.76
2019-05-11T00:40:56.536Z,20.71
2019-05-11T00:41:56.521Z,20.60
2019-05-11T00:42:56.559Z,20.49
2019-05-11T00:43:56.495Z,20.49
2019-05-11T00:44:56.492Z,20.46
2019-05-11T00:45:56.475Z,20.49
2019-05-11T00:46:56.463Z,20.58
2019-05-11T00:47:56.453Z,20.50
2019-05-11T00:48:56.493Z,20.60
2019-05-11T00:49:56.430Z,20.53
2019-05-11T00:50:56.421Z,20.85
2019-05-11T00:51:56.412Z,21.17
2019-05-11T00:52:56.398Z,21.20
2019-05-11T00:53:56.385Z,21.17
2019-05-11T00:54:56.780Z,21.15
2019-05-11T00:55:56.366Z,21.07
2019-05-11T00:56:56.359Z,20.97
2019-05-11T00:57:56.346Z,20.86
2019-05-11T00:58:56.333Z,20.78
2019-05-11T00:59:56.324Z,20.58
2019-05-11T01:00:56.363Z,20.50
2019-05-11T01:01:56.302Z,20.43
2019-05-11T01:02:56.291Z,20.31
2019-05-11T01:03:56.275Z,20.25
2019-05-11T01:04:56.277Z,20.18
2019-05-11T01:05:56.346Z,20.09
2019-05-11T01:06:56.309Z,20.12
2019-05-11T01:07:56.236Z,20.09
2019-05-11T01:08:56.226Z,20.13
2019-05-11T01:09:56.213Z,20.15
2019-05-11T01:10:56.205Z,20.15
2019-05-11T01:11:56.194Z,20.18
2019-05-11T01:12:56.331Z,20.16
2019-05-11T01:13:56.176Z,20.28
2019-05-11T01:14:56.157Z,20.33
2019-05-11T01:15:56.147Z,20.48
2019-05-11T01:16:56.136Z,20.80
2019-05-11T01:17:56.126Z,21.01
2019-05-11T01:18:56.214Z,20.98
2019-05-11T01:19:56.104Z,20.90
2019-05-11T01:20:56.095Z,20.78
2019-05-11T01:21:56.081Z,20.80
2019-05-11T01:22:56.070Z,20.85
2019-05-11T01:23:56.058Z,20.83
2019-05-11T01:24:56.102Z,20.86
2019-05-11T01:25:56.038Z,20.75
2019-05-11T01:26:56.029Z,20.82
2019-05-11T01:27:56.022Z,20.85
2019-05-11T01:28:56.005Z,20.79
2019-05-11T01:29:55.995Z,20.79
2019-05-11T01:30:56.135Z,20.75
2019-05-11T01:31:55.976Z,20.67
2019-05-11T01:32:55.962Z,20.52
2019-05-11T01:33:55.954Z,20.50
2019-05-11T01:34:55.941Z,20.52
2019-05-11T01:35:55.928Z,20.76
2019-05-11T01:36:55.968Z,20.76
2019-05-11T01:37:55.912Z,20.78
2019-05-11T01:38:55.896Z,20.76
2019-05-11T01:39:55.888Z,20.73
2019-05-11T01:40:58.591Z,20.79
2019-05-11T01:41:55.866Z,20.68
2019-05-11T01:42:55.901Z,20.61
2019-05-11T01:43:55.839Z,20.73
2019-05-11T01:44:55.835Z,21.15
2019-05-11T01:45:55.820Z,21.42
2019-05-11T01:46:55.811Z,21.42
2019-05-11T01:47:55.822Z,21.29
2019-05-11T01:48:55.938Z,21.29
2019-05-11T01:49:55.778Z,21.24
2019-05-11T01:50:55.772Z,21.13
2019-05-11T01:51:55.758Z,21.01
2019-05-11T01:52:55.744Z,21.00
2019-05-11T01:53:55.739Z,20.97
2019-05-11T01:54:55.821Z,20.98
2019-05-11T01:55:55.711Z,21.04
2019-05-11T01:56:55.703Z,21.23
2019-05-11T01:57:55.690Z,21.44
2019-05-11T01:58:55.681Z,21.45
2019-05-11T01:59:55.667Z,21.41
2019-05-11T02:00:55.708Z,21.34
2019-05-11T02:01:55.646Z,21.29
2019-05-11T02:02:55.639Z,21.19
2019-05-11T02:03:55.639Z,21.17
2019-05-11T02:04:55.616Z,21.04
2019-05-11T02:05:55.604Z,20.97
2019-05-11T02:06:55.745Z,20.92
2019-05-11T02:07:55.592Z,20.90
2019-05-11T02:08:55.573Z,20.90
2019-05-11T02:09:55.562Z,20.94
2019-05-11T02:10:55.550Z,20.95
2019-05-11T02:11:55.539Z,21.07
2019-05-11T02:12:55.581Z,21.23
2019-05-11T02:13:55.520Z,21.56
2019-05-11T02:14:55.512Z,21.64
2019-05-11T02:15:55.499Z,21.64
2019-05-11T02:16:55.487Z,21.64
2019-05-11T02:17:55.478Z,21.74
2019-05-11T02:18:55.514Z,21.74
2019-05-11T02:19:55.457Z,21.72
2019-05-11T02:20:55.447Z,21.64
2019-05-11T02:21:55.430Z,21.74
2019-05-11T02:22:55.423Z,21.69
2019-05-11T02:23:55.415Z,21.81
2019-05-11T02:24:55.554Z,21.87
2019-05-11T02:25:55.390Z,21.90
2019-05-11T02:26:55.378Z,21.96
2019-05-11T02:27:55.370Z,22.03
2019-05-11T02:28:55.364Z,22.06
2019-05-11T02:29:55.351Z,22.12
2019-05-11T02:30:55.400Z,22.13
2019-05-11T02:31:55.333Z,22.15
2019-05-11T02:32:55.330Z,22.18
2019-05-11T02:33:55.315Z,22.19
2019-05-11T02:34:55.296Z,22.16
2019-05-11T02:35:55.287Z,22.11
2019-05-11T02:36:55.327Z,22.15
2019-05-11T02:37:55.379Z,22.06
2019-05-11T02:38:55.256Z,21.98
2019-05-11T02:39:55.246Z,22.05
2019-05-11T02:40:55.247Z,22.16
2019-05-11T02:41:55.229Z,22.08
2019-05-11T02:42:55.364Z,22.05
2019-05-11T02:43:55.204Z,22.12
2019-05-11T02:44:55.196Z,22.16
2019-05-11T02:45:55.185Z,22.36
2019-05-11T02:46:55.175Z,22.59
2019-05-11T02:47:55.170Z,22.99
2019-05-11T02:48:55.201Z,23.39
2019-05-11T02:49:55.143Z,23.81
2019-05-11T02:50:55.142Z,24.39
2019-05-11T02:51:55.121Z,24.99
2019-05-11T02:52:55.109Z,25.53
2019-05-11T02:53:55.103Z,26.26
2019-05-11T02:54:55.136Z,26.78
2019-05-11T02:55:55.075Z,27.11
2019-05-11T02:56:55.063Z,27.56
2019-05-11T02:57:55.055Z,27.72
2019-05-11T02:58:55.044Z,27.73
2019-05-11T02:59:55.033Z,27.81
2019-05-11T03:00:55.273Z,28.12
2019-05-11T03:01:55.013Z,28.15
2019-05-11T03:02:55.005Z,27.87
2019-05-11T03:03:54.995Z,28.16
2019-05-11T03:04:54.986Z,28.80
2019-05-11T03:05:55.025Z,29.18
2019-05-11T03:06:54.964Z,29.71
2019-05-11T03:07:54.957Z,30.08
2019-05-11T03:08:54.940Z,30.34
2019-05-11T03:09:54.931Z,30.48
2019-05-11T03:10:54.915Z,30.73
2019-05-11T03:11:56.454Z,30.98
2019-05-11T03:12:54.904Z,31.18
2019-05-11T03:13:54.884Z,31.42
2019-05-11T03:14:54.880Z,31.83
2019-05-11T03:15:54.866Z,32.17
2019-05-11T03:16:54.856Z,32.61
2019-05-11T03:17:54.999Z,32.86
2019-05-11T03:18:54.842Z,33.25
2019-05-11T03:19:54.823Z,33.50
2019-05-11T03:20:54.816Z,33.88
2019-05-11T03:21:54.804Z,34.29
2019-05-11T03:22:54.848Z,34.27
2019-05-11T03:23:54.838Z,33.51
2019-05-11T03:24:54.779Z,32.98
2019-05-11T03:25:54.779Z,32.48
2019-05-11T03:26:54.756Z,31.61
2019-05-11T03:27:54.745Z,31.10
2019-05-11T03:28:54.734Z,30.68
2019-05-11T03:29:54.770Z,30.38
2019-05-11T03:30:54.730Z,30.29
2019-05-11T03:31:54.802Z,30.51
2019-05-11T03:32:54.714Z,30.51
2019-05-11T03:33:54.682Z,31.03
2019-05-11T03:34:54.682Z,31.57
2019-05-11T03:35:54.821Z,32.26
2019-05-11T03:36:54.654Z,32.80
2019-05-11T03:37:54.747Z,33.35
2019-05-11T03:38:54.631Z,33.50
2019-05-11T03:39:54.622Z,33.57
2019-05-11T03:40:54.612Z,33.38
2019-05-11T03:42:12.885Z,33.26
2019-05-11T03:42:55.694Z,32.95
2019-05-11T03:43:54.579Z,32.62
2019-05-11T03:44:54.576Z,32.34
2019-05-11T03:45:54.572Z,32.26
2019-05-11T03:46:54.551Z,31.90
2019-05-11T03:47:54.594Z,31.49
2019-05-11T03:48:54.542Z,31.03
2019-05-11T03:49:54.529Z,30.49
2019-05-11T03:50:54.513Z,30.05
2019-05-11T03:51:54.511Z,29.72
2019-05-11T03:52:54.490Z,29.42
2019-05-11T03:53:54.635Z,29.10
2019-05-11T03:54:54.473Z,28.80
2019-05-11T03:55:54.466Z,28.53
2019-05-11T03:56:54.452Z,28.22
2019-05-11T03:57:54.442Z,27.97
2019-05-11T03:58:54.435Z,27.73
2019-05-11T03:59:54.520Z,27.47
2019-05-11T04:00:54.411Z,27.10
2019-05-11T04:01:54.397Z,26.60
2019-05-11T04:02:54.391Z,26.20
2019-05-11T04:03:54.379Z,25.98
2019-05-11T04:04:54.417Z,25.79
2019-05-11T04:05:54.361Z,25.61
2019-05-11T04:06:54.348Z,25.38
2019-05-11T04:07:54.336Z,25.11
2019-05-11T04:08:54.435Z,24.79
2019-05-11T04:09:54.570Z,24.14
2019-05-11T04:10:54.308Z,24.04
2019-05-11T04:11:54.294Z,23.78
2019-05-11T04:12:54.305Z,23.57
2019-05-11T04:13:54.272Z,23.45
2019-05-11T04:14:54.266Z,23.20
2019-05-11T04:15:54.302Z,22.97
2019-05-11T04:16:54.241Z,22.82
2019-05-11T04:17:54.237Z,22.77
2019-05-11T04:18:54.222Z,22.80
2019-05-11T04:19:54.209Z,22.69
2019-05-11T04:20:54.203Z,22.77
2019-05-11T04:21:54.239Z,22.92
2019-05-11T04:22:54.179Z,23.22
2019-05-11T04:23:54.171Z,23.51
2019-05-11T04:24:54.162Z,23.59
2019-05-11T04:25:54.149Z,23.67
2019-05-11T04:26:54.142Z,23.94
2019-05-11T04:27:54.278Z,24.07
2019-05-11T04:28:54.124Z,24.12
2019-05-11T04:29:54.110Z,24.01
2019-05-11T04:30:54.096Z,23.88
2019-05-11T04:31:54.083Z,23.84
2019-05-11T04:32:54.079Z,23.70
2019-05-11T04:33:54.114Z,23.23
2019-05-11T04:34:54.059Z,22.48
2019-05-11T04:35:54.040Z,22.13
2019-05-11T04:36:54.031Z,21.85
2019-05-11T04:37:54.021Z,21.63
2019-05-11T04:38:54.010Z,21.54
2019-05-11T04:39:54.073Z,21.13
2019-05-11T04:40:53.993Z,20.98
2019-05-11T04:41:53.978Z,20.97
2019-05-11T04:42:56.066Z,20.82
2019-05-11T04:43:53.954Z,20.76
2019-05-11T04:44:53.949Z,20.78
2019-05-11T04:45:54.183Z,20.89
2019-05-11T04:46:53.925Z,20.78
2019-05-11T04:47:53.916Z,20.67
2019-05-11T04:48:53.905Z,20.60
2019-05-11T04:49:53.909Z,20.53
2019-05-11T04:50:53.883Z,20.53
2019-05-11T04:51:53.920Z,20.65
2019-05-11T04:52:53.859Z,20.55
2019-05-11T04:53:53.850Z,20.55
2019-05-11T04:54:53.846Z,20.45
2019-05-11T04:55:53.834Z,20.38
2019-05-11T04:56:53.816Z,20.28
2019-05-11T04:57:53.865Z,20.35
2019-05-11T04:58:53.796Z,20.28
2019-05-11T04:59:53.787Z,20.30
2019-05-11T05:00:53.773Z,20.24
2019-05-11T05:01:53.767Z,20.08
2019-05-11T05:02:53.752Z,19.94
2019-05-11T05:03:57.747Z,19.80
2019-05-11T05:05:18.544Z,19.71
2019-05-11T05:06:24.024Z,19.83
2019-05-11T05:07:19.622Z,19.76
2019-05-11T05:08:21.226Z,19.76
2019-05-11T05:09:44.753Z,19.93
2019-05-11T05:10:43.350Z,19.83
2019-05-11T05:11:43.340Z,19.75
2019-05-11T05:12:50.756Z,19.59
2019-05-11T05:14:10.182Z,19.53
2019-05-11T05:15:08.221Z,19.27
2019-05-11T05:16:08.109Z,18.90
2019-05-11T05:17:08.096Z,18.92
2019-05-11T05:18:08.089Z,19.68
2019-05-11T05:19:08.077Z,20.27
2019-05-11T05:20:08.072Z,19.93
2019-05-11T05:21:08.207Z,19.59
2019-05-11T05:22:08.053Z,19.47
2019-05-11T05:23:08.034Z,19.80
2019-05-11T05:24:08.022Z,19.97
2019-05-11T05:25:08.011Z,20.09
2019-05-11T05:26:08.003Z,20.06
2019-05-11T05:27:08.082Z,20.12
2019-05-11T05:28:07.982Z,20.16
2019-05-11T05:29:07.973Z,20.21
2019-05-11T05:30:08.289Z,20.73
2019-05-11T05:31:07.949Z,20.94
2019-05-11T05:32:07.938Z,21.56
2019-05-11T05:33:07.978Z,21.79
2019-05-11T05:34:07.920Z,22.21
2019-05-11T05:35:07.905Z,22.48
2019-05-11T05:36:07.898Z,22.56
2019-05-11T05:37:07.897Z,22.33
2019-05-11T05:38:07.876Z,22.40
2019-05-11T05:39:09.271Z,22.52
2019-05-11T05:40:07.852Z,22.49
2019-05-11T05:41:07.843Z,22.45
2019-05-11T05:42:07.831Z,22.40
2019-05-11T05:43:07.820Z,22.49
2019-05-11T05:44:07.808Z,22.46
2019-05-11T05:45:07.856Z,22.69
2019-05-11T05:46:07.792Z,22.74
2019-05-11T05:47:07.784Z,22.90
2019-05-11T05:48:07.776Z,23.08
2019-05-11T05:49:07.760Z,23.33
2019-05-11T05:50:07.754Z,23.42
2019-05-11T05:51:07.789Z,23.41
2019-05-11T05:52:07.795Z,23.41
2019-05-11T05:53:07.715Z,23.33
2019-05-11T05:54:07.704Z,23.42
2019-05-11T05:55:07.699Z,23.48
2019-05-11T05:56:07.682Z,23.48
2019-05-11T05:57:07.822Z,23.75
2019-05-11T05:58:07.663Z,23.94
2019-05-11T05:59:07.655Z,24.12
2019-05-11T06:00:07.643Z,24.16
2019-05-11T06:01:10.070Z,24.27
2019-05-11T06:02:07.623Z,24.39
2019-05-11T06:03:07.661Z,24.50
2019-05-11T06:04:07.600Z,24.68
2019-05-11T06:05:07.593Z,24.87
2019-05-11T06:06:07.580Z,25.01
2019-05-11T06:07:07.571Z,25.05
2019-05-11T06:08:07.565Z,25.09
2019-05-11T06:09:07.601Z,25.16
2019-05-11T06:10:07.542Z,25.26
2019-05-11T06:11:07.526Z,25.30
2019-05-11T06:12:07.518Z,25.36
2019-05-11T06:13:07.507Z,25.57
2019-05-11T06:14:07.500Z,25.68
2019-05-11T06:15:07.639Z,25.77
2019-05-11T06:16:07.474Z,25.74
2019-05-11T06:17:07.470Z,25.82
2019-05-11T06:18:07.454Z,25.90
2019-05-11T06:19:07.449Z,25.87
2019-05-11T06:20:08.130Z,25.93
2019-05-11T06:21:07.478Z,25.99
2019-05-11T06:22:07.413Z,26.08
2019-05-11T06:23:07.405Z,26.09
2019-05-11T06:24:08.474Z,26.09
2019-05-11T06:25:07.389Z,26.14
2019-05-11T06:26:07.395Z,26.12
2019-05-11T06:27:07.410Z,26.11
2019-05-11T06:28:07.347Z,25.97
2019-05-11T06:29:07.343Z,25.77
2019-05-11T06:30:07.335Z,25.77
2019-05-11T06:31:07.316Z,25.65
2019-05-11T06:32:07.309Z,25.69
2019-05-11T06:33:07.699Z,25.68
2019-05-11T06:34:07.288Z,25.56
2019-05-11T06:35:07.273Z,25.47
2019-05-11T06:36:07.263Z,25.29
2019-05-11T06:37:07.250Z,24.97
2019-05-11T06:38:07.241Z,25.06
2019-05-11T06:39:07.330Z,25.16
2019-05-11T06:40:07.231Z,25.30
2019-05-11T06:41:07.207Z,25.37
2019-05-11T06:42:07.196Z,25.38
2019-05-11T06:43:07.185Z,25.31
2019-05-11T06:44:07.178Z,25.26
2019-05-11T06:45:07.216Z,25.26
2019-05-11T06:46:07.153Z,25.29
2019-05-11T06:47:07.146Z,25.38
2019-05-11T06:48:07.132Z,25.57
2019-05-11T06:49:07.127Z,25.68
2019-05-11T06:50:07.115Z,25.80
2019-05-11T06:51:07.253Z,25.87
2019-05-11T06:52:07.104Z,26.02
2019-05-11T06:53:07.090Z,26.16
2019-05-11T06:54:07.075Z,26.28
2019-05-11T06:55:07.062Z,26.49
2019-05-11T06:56:07.049Z,26.61
2019-05-11T06:57:07.146Z,26.56
2019-05-11T06:58:07.032Z,26.41
2019-05-11T06:59:07.020Z,26.54
2019-05-11T07:00:07.015Z,26.61
2019-05-11T07:01:06.999Z,26.60
2019-05-11T07:02:06.995Z,26.76
2019-05-11T07:03:07.038Z,26.66
2019-05-11T07:04:06.969Z,26.48
2019-05-11T07:05:06.957Z,26.45
2019-05-11T07:06:06.947Z,26.35
2019-05-11T07:07:06.943Z,26.36
2019-05-11T07:08:06.975Z,26.38
2019-05-11T07:09:06.922Z,26.35
2019-05-11T07:10:06.982Z,26.27
2019-05-11T07:11:06.896Z,26.09
2019-05-11T07:12:06.952Z,25.83
2019-05-11T07:13:06.877Z,25.72
2019-05-11T07:14:20.121Z,25.69
2019-05-11T07:15:07.951Z,25.59
2019-05-11T07:16:06.847Z,25.68
2019-05-11T07:17:06.838Z,25.69
2019-05-11T07:18:06.827Z,25.80
2019-05-11T07:19:06.963Z,25.75
2019-05-11T07:20:06.807Z,25.74
2019-05-11T07:21:06.796Z,25.62
2019-05-11T07:22:06.784Z,25.47
2019-05-11T07:23:06.775Z,25.52
2019-05-11T07:24:06.766Z,25.57
2019-05-11T07:25:06.809Z,25.47
2019-05-11T07:26:06.799Z,25.53
2019-05-11T07:27:06.733Z,25.65
2019-05-11T07:28:06.724Z,25.68
2019-05-11T07:29:06.713Z,25.79
2019-05-11T07:30:06.702Z,25.61
2019-05-11T07:31:06.742Z,25.77
2019-05-11T07:32:20.013Z,25.79
2019-05-11T07:33:31.483Z,25.77
2019-05-11T07:34:31.478Z,25.77
2019-05-11T07:35:31.462Z,25.91
2019-05-11T07:36:31.701Z,25.91
2019-05-11T07:37:31.446Z,25.84
2019-05-11T07:38:31.434Z,25.90
2019-05-11T07:39:31.429Z,25.99
2019-05-11T07:40:31.409Z,26.02
2019-05-11T07:41:31.400Z,26.11
2019-05-11T07:42:31.441Z,26.12
2019-05-11T07:43:31.387Z,26.12
2019-05-11T07:44:37.904Z,26.05
2019-05-11T07:45:58.277Z,25.98
2019-05-11T07:46:58.535Z,25.93
2019-05-11T07:47:58.769Z,25.82
2019-05-11T07:48:58.364Z,25.74
2019-05-11T07:49:57.935Z,25.75
2019-05-11T07:50:58.287Z,25.74
2019-05-11T07:51:58.568Z,25.77
2019-05-11T07:52:56.100Z,25.67
2019-05-11T07:53:57.794Z,25.79
2019-05-11T07:54:58.011Z,25.86
2019-05-11T07:55:57.764Z,25.82
2019-05-11T07:56:58.220Z,25.79
2019-05-11T07:57:58.411Z,25.77
2019-05-11T07:58:58.124Z,25.74
2019-05-11T07:59:57.878Z,25.68
2019-05-11T08:00:58.119Z,25.71
2019-05-11T08:01:58.141Z,25.65
2019-05-11T08:02:58.312Z,25.74
2019-05-11T08:03:58.402Z,25.77
2019-05-11T08:04:55.969Z,25.75
2019-05-11T08:05:58.084Z,25.80
2019-05-11T08:06:58.275Z,25.79
2019-05-11T08:07:55.940Z,25.80
2019-05-11T08:08:55.928Z,25.87
2019-05-11T08:09:55.926Z,26.01
2019-05-11T08:10:55.911Z,26.11
2019-05-11T08:11:58.249Z,26.20
2019-05-11T08:12:58.554Z,26.19
2019-05-11T08:13:58.248Z,26.23
2019-05-11T08:15:04.915Z,26.16
2019-05-11T08:16:20.665Z,26.26
2019-05-11T08:17:20.736Z,26.36
2019-05-11T08:18:20.643Z,26.45
2019-05-11T08:19:20.634Z,26.60
2019-05-11T08:20:20.623Z,26.67
2019-05-11T08:21:20.614Z,26.68
2019-05-11T08:22:23.022Z,26.78
2019-05-11T08:23:20.643Z,26.82
2019-05-11T08:24:20.581Z,27.01
2019-05-11T08:25:20.570Z,27.05
2019-05-11T08:26:20.572Z,27.19
2019-05-11T08:27:20.556Z,27.09
2019-05-11T08:28:20.538Z,27.16
2019-05-11T08:29:20.678Z,27.17
2019-05-11T08:30:20.521Z,27.06
2019-05-11T08:31:20.508Z,27.02
2019-05-11T08:32:20.499Z,26.98
2019-05-11T08:33:20.486Z,27.11
2019-05-11T08:34:20.478Z,27.19
2019-05-11T08:35:20.516Z,27.31
2019-05-11T08:36:20.452Z,27.54
2019-05-11T08:37:20.446Z,27.56
2019-05-11T08:38:20.433Z,27.69
2019-05-11T08:39:20.426Z,27.75
2019-05-11T08:40:20.415Z,27.87
2019-05-11T08:41:20.455Z,27.72
2019-05-11T08:42:20.391Z,27.69
2019-05-11T08:43:20.385Z,27.47
2019-05-11T08:44:20.373Z,27.32
2019-05-11T08:45:24.483Z,27.33
2019-05-11T08:46:20.354Z,27.33
2019-05-11T08:47:20.491Z,27.31
2019-05-11T08:48:20.329Z,27.41
2019-05-11T08:49:20.321Z,27.57
2019-05-11T08:50:20.312Z,27.61
2019-05-11T08:51:20.298Z,27.65
2019-05-11T08:52:20.288Z,27.69
2019-05-11T08:53:20.332Z,27.70
2019-05-11T08:54:20.267Z,27.78
2019-05-11T08:55:20.261Z,27.84
2019-05-11T08:56:20.248Z,27.84
2019-05-11T08:57:20.240Z,27.93
2019-05-11T08:58:20.226Z,27.83
2019-05-11T08:59:20.266Z,27.95
2019-05-11T09:00:20.202Z,28.00
2019-05-11T09:01:20.199Z,28.03
2019-05-11T09:02:20.186Z,28.09
2019-05-11T09:03:20.175Z,28.18
2019-05-11T09:04:20.214Z,28.20
2019-05-11T09:05:20.154Z,28.24
2019-05-11T09:06:20.142Z,28.33
2019-05-11T09:07:20.134Z,28.16
2019-05-11T09:08:20.120Z,28.03
2019-05-11T09:09:20.111Z,28.02
2019-05-11T09:10:20.205Z,27.90
2019-05-11T09:11:20.095Z,27.91
2019-05-11T09:12:20.080Z,27.91
2019-05-11T09:13:20.071Z,27.88
2019-05-11T09:14:20.063Z,27.94
2019-05-11T09:15:32.342Z,27.87
2019-05-11T09:16:44.898Z,27.81
2019-05-11T09:17:44.892Z,27.88
2019-05-11T09:18:44.878Z,27.81
2019-05-11T09:19:44.867Z,27.75
2019-05-11T09:20:44.858Z,27.79
2019-05-11T09:21:45.095Z,27.85
2019-05-11T09:22:44.835Z,27.87
2019-05-11T09:23:44.826Z,27.87
2019-05-11T09:24:44.816Z,27.70
2019-05-11T09:25:44.803Z,27.72
2019-05-11T09:26:44.793Z,27.68
2019-05-11T09:27:44.832Z,27.76
2019-05-11T09:28:44.774Z,27.81
2019-05-11T09:29:44.764Z,27.87
2019-05-11T09:30:44.750Z,27.93
2019-05-11T09:31:44.741Z,27.75
2019-05-11T09:32:44.733Z,27.78
2019-05-11T09:33:44.768Z,27.88
2019-05-11T09:34:44.709Z,27.85
2019-05-11T09:35:50.040Z,27.87
2019-05-11T09:37:09.500Z,27.79
2019-05-11T09:38:09.489Z,27.87
2019-05-11T09:39:09.627Z,27.84
2019-05-11T09:40:09.466Z,27.83
2019-05-11T09:41:12.036Z,27.75
2019-05-11T09:42:09.449Z,27.75
2019-05-11T09:43:09.439Z,27.73
2019-05-11T09:44:09.427Z,27.84
2019-05-11T09:45:09.470Z,27.79
2019-05-11T09:46:09.406Z,27.79
2019-05-11T09:47:09.403Z,27.84
2019-05-11T09:48:09.384Z,27.93
2019-05-11T09:49:09.375Z,27.73
2019-05-11T09:50:09.417Z,27.72
2019-05-11T09:51:09.357Z,27.73
2019-05-11T09:52:09.346Z,27.70
2019-05-11T09:53:09.334Z,27.69
2019-05-11T09:54:09.322Z,27.75
2019-05-11T09:55:09.313Z,27.78
2019-05-11T09:56:09.351Z,27.72
2019-05-11T09:57:09.291Z,27.70
2019-05-11T09:58:09.282Z,27.75
2019-05-11T09:59:09.270Z,27.88
2019-05-11T10:00:09.263Z,27.83
2019-05-11T10:01:09.248Z,27.94
2019-05-11T10:02:09.388Z,27.90
2019-05-11T10:03:09.231Z,27.95
2019-05-11T10:04:09.232Z,27.70
2019-05-11T10:05:09.211Z,27.60
2019-05-11T10:06:09.196Z,27.57
2019-05-11T10:07:09.187Z,27.56
2019-05-11T10:08:09.289Z,27.43
2019-05-11T10:09:09.167Z,27.47
2019-05-11T10:10:09.492Z,27.53
2019-05-11T10:11:09.149Z,27.56
2019-05-11T10:12:09.133Z,27.79
2019-05-11T10:13:09.124Z,27.88
2019-05-11T10:14:09.164Z,27.85
2019-05-11T10:15:09.104Z,28.00
2019-05-11T10:16:10.607Z,27.93
2019-05-11T10:17:09.082Z,27.87
2019-05-11T10:18:09.070Z,27.91
2019-05-11T10:19:09.063Z,28.00
2019-05-11T10:20:09.569Z,28.00
2019-05-11T10:21:09.041Z,28.09
2019-05-11T10:22:09.036Z,28.12
2019-05-11T10:23:09.026Z,28.25
2019-05-11T10:24:09.009Z,28.29
2019-05-11T10:25:09.308Z,28.40
2019-05-11T10:26:09.038Z,28.35
2019-05-11T10:27:08.981Z,28.44
2019-05-11T10:28:08.971Z,28.47
2019-05-11T10:29:08.961Z,28.48
2019-05-11T10:30:08.953Z,28.43
2019-05-11T10:31:08.939Z,28.60
2019-05-11T10:32:08.974Z,28.54
2019-05-11T10:33:08.918Z,28.48
2019-05-11T10:34:08.909Z,28.47
2019-05-11T10:35:08.897Z,28.35
2019-05-11T10:36:08.883Z,28.31
2019-05-11T10:37:08.874Z,28.21
2019-05-11T10:38:09.241Z,28.13
2019-05-11T10:39:08.858Z,28.08
2019-05-11T10:40:09.641Z,28.00
2019-05-11T10:41:08.920Z,27.97
2019-05-11T10:42:08.823Z,28.03
2019-05-11T10:43:08.814Z,28.00
2019-05-11T10:44:08.860Z,27.88
2019-05-11T10:45:09.274Z,27.88
2019-05-11T10:46:16.986Z,27.85
2019-05-11T10:47:09.877Z,28.00
2019-05-11T10:48:08.990Z,28.00
2019-05-11T10:49:08.801Z,27.85
2019-05-11T10:50:08.880Z,27.91
2019-05-11T10:51:08.730Z,27.79
2019-05-11T10:52:09.797Z,27.73
2019-05-11T10:53:08.711Z,27.85
2019-05-11T10:54:08.955Z,27.84
2019-05-11T10:55:09.006Z,27.78
2019-05-11T10:56:08.908Z,27.72
2019-05-11T10:57:08.670Z,27.87
2019-05-11T10:58:08.799Z,27.84
2019-05-11T10:59:08.651Z,27.78
2019-05-11T11:00:08.638Z,27.72
2019-05-11T11:01:08.958Z,27.76
2019-05-11T11:02:08.615Z,27.70
2019-05-11T11:03:08.655Z,27.56
2019-05-11T11:04:08.596Z,27.60
2019-05-11T11:05:08.586Z,27.58
2019-05-11T11:06:08.726Z,27.63
2019-05-11T11:07:08.561Z,27.65
2019-05-11T11:08:08.554Z,27.63
2019-05-11T11:09:08.546Z,27.70
2019-05-11T11:10:09.084Z,27.78
2019-05-11T11:11:08.526Z,27.78
2019-05-11T11:12:08.626Z,27.75
2019-05-11T11:13:08.503Z,27.78
2019-05-11T11:14:08.831Z,27.72
2019-05-11T11:15:08.481Z,27.58
2019-05-11T11:16:08.591Z,27.68
2019-05-11T11:17:08.881Z,27.56
2019-05-11T11:18:08.762Z,27.65
2019-05-11T11:19:08.441Z,27.60
2019-05-11T11:20:08.812Z,27.61
2019-05-11T11:21:08.816Z,27.63
2019-05-11T11:22:35.363Z,27.63
2019-05-11T11:23:33.262Z,27.68
2019-05-11T11:24:33.259Z,27.69
2019-05-11T11:25:33.240Z,27.69
2019-05-11T11:26:33.233Z,27.76
2019-05-11T11:27:33.220Z,27.75
2019-05-11T11:28:33.259Z,27.81
2019-05-11T11:29:33.200Z,27.90
2019-05-11T11:30:33.192Z,27.97
2019-05-11T11:31:33.180Z,28.00
2019-05-11T11:32:33.172Z,27.93
2019-05-11T11:33:33.308Z,28.05
2019-05-11T11:34:33.148Z,28.06
2019-05-11T11:35:33.133Z,28.13
2019-05-11T11:36:33.131Z,28.16
2019-05-11T11:37:33.120Z,28.02
2019-05-11T11:38:33.109Z,27.88
2019-05-11T11:39:33.146Z,27.73
2019-05-11T11:40:33.083Z,27.56
2019-05-11T11:41:33.115Z,27.60
2019-05-11T11:42:33.109Z,27.65
2019-05-11T11:43:33.101Z,27.75
2019-05-11T11:44:33.042Z,27.72
2019-05-11T11:45:33.084Z,27.73
2019-05-11T11:46:46.697Z,27.81
2019-05-11T11:47:58.136Z,27.83
2019-05-11T11:48:58.177Z,27.85
2019-05-11T11:49:58.353Z,27.93
2019-05-11T11:50:58.568Z,27.94
2019-05-11T11:51:58.090Z,28.00
2019-05-11T11:52:57.994Z,28.09
2019-05-11T11:53:58.408Z,28.16
2019-05-11T11:54:58.715Z,28.13
2019-05-11T11:55:58.765Z,28.20
2019-05-11T11:56:59.012Z,28.22
2019-05-11T11:57:58.915Z,28.22
2019-05-11T11:58:58.040Z,28.22
2019-05-11T11:59:58.728Z,28.28
2019-05-11T12:00:58.663Z,28.20
2019-05-11T12:01:58.234Z,28.24
2019-05-11T12:02:58.128Z,28.22
2019-05-11T12:03:58.164Z,28.35
2019-05-11T12:04:58.266Z,28.32
2019-05-11T12:05:58.168Z,28.40
2019-05-11T12:06:58.152Z,28.35
2019-05-11T12:07:58.112Z,28.32
2019-05-11T12:08:58.502Z,28.32
2019-05-11T12:09:58.768Z,28.33
2019-05-11T12:10:58.865Z,28.41
2019-05-11T12:11:58.292Z,28.33
2019-05-11T12:12:58.231Z,28.50
2019-05-11T12:13:58.028Z,28.36
2019-05-11T12:14:58.488Z,28.47
2019-05-11T12:15:58.515Z,28.35
2019-05-11T12:17:07.538Z,28.36
2019-05-11T12:18:22.325Z,28.35
2019-05-11T12:19:22.314Z,28.40
2019-05-11T12:20:22.404Z,28.44
2019-05-11T12:21:22.295Z,28.43
2019-05-11T12:22:22.285Z,28.50
2019-05-11T12:23:22.274Z,28.43
2019-05-11T12:24:22.264Z,28.47
2019-05-11T12:25:22.253Z,28.51
2019-05-11T12:26:22.393Z,28.50
2019-05-11T12:27:22.232Z,28.44
2019-05-11T12:28:22.220Z,28.44
2019-05-11T12:29:22.211Z,28.51
2019-05-11T12:30:22.202Z,28.41
2019-05-11T12:31:22.191Z,28.21
2019-05-11T12:32:48.773Z,27.88
2019-05-11T12:33:48.232Z,27.79
2019-05-11T12:34:48.288Z,27.79
2019-05-11T12:35:48.183Z,27.83
2019-05-11T12:36:48.019Z,27.93
2019-05-11T12:37:48.445Z,27.95
2019-05-11T12:38:48.826Z,28.05
2019-05-11T12:39:47.868Z,28.00
2019-05-11T12:40:47.760Z,28.06
2019-05-11T12:41:47.961Z,28.05
2019-05-11T12:42:48.925Z,28.12
2019-05-11T12:43:48.831Z,28.16
2019-05-11T12:44:48.155Z,28.16
2019-05-11T12:45:48.184Z,28.15
2019-05-11T12:46:48.812Z,28.16
2019-05-11T12:47:47.982Z,28.15
2019-05-11T12:48:48.534Z,28.15
2019-05-11T12:49:48.345Z,28.13
2019-05-11T12:50:48.428Z,28.15
2019-05-11T12:51:48.790Z,28.21
2019-05-11T12:52:47.711Z,28.13
2019-05-11T12:53:47.633Z,28.22
2019-05-11T12:54:47.874Z,28.20
2019-05-11T12:55:48.407Z,28.32
2019-05-11T12:56:48.899Z,28.29
2019-05-11T12:57:47.775Z,28.29